createdAt,value
2022-10-15T00:01:49.986Z,68.10
2022-10-15T00:04:17.888Z,68.90
2022-10-15T00:06:45.685Z,68.20
2022-10-15T00:09:13.385Z,68.20
2022-10-15T00:11:41.168Z,68.20
2022-10-15T00:14:10.263Z,68.20
2022-10-15T00:16:38.294Z,68.30
2022-10-15T00:19:06.433Z,68.30
2022-10-15T00:21:34.215Z,68.20
2022-10-15T00:24:01.986Z,68.20
2022-10-15T00:26:31.167Z,68.20
2022-10-15T00:29:01.283Z,68.20
2022-10-15T00:31:32.662Z,68.30
2022-10-15T00:34:02.595Z,68.30
2022-10-15T00:36:32.366Z,68.30
2022-10-15T00:39:00.297Z,68.30
2022-10-15T00:41:32.580Z,68.30
2022-10-15T00:44:02.122Z,68.40
2022-10-15T00:46:34.955Z,68.30
2022-10-15T00:49:12.606Z,68.30
2022-10-15T00:51:45.499Z,68.40
2022-10-15T00:54:13.822Z,68.40
2022-10-15T00:56:44.651Z,68.40
2022-10-15T00:59:13.704Z,68.50
2022-10-15T01:01:43.102Z,68.50
2022-10-15T01:04:12.311Z,68.60
2022-10-15T01:06:40.913Z,68.50
2022-10-15T01:09:08.784Z,68.70
2022-10-15T01:11:44.569Z,68.60
2022-10-15T01:14:37.456Z,68.60
2022-10-15T01:17:14.703Z,69.00
2022-10-15T01:20:20.253Z,68.60
2022-10-15T01:23:03.718Z,68.70
2022-10-15T01:25:45.334Z,68.70
2022-10-15T01:28:24.046Z,68.80
2022-10-15T01:30:59.902Z,68.60
2022-10-15T01:33:36.838Z,68.70
2022-10-15T01:36:13.911Z,68.70
2022-10-15T01:38:52.605Z,68.70
2022-10-15T01:41:28.892Z,68.70
2022-10-15T01:44:01.813Z,68.90
2022-10-15T01:46:36.220Z,69.00
2022-10-15T01:49:05.828Z,68.90
2022-10-15T01:51:38.024Z,69.00
2022-10-15T01:54:08.565Z,68.90
2022-10-15T01:56:38.257Z,68.90
2022-10-15T01:59:08.063Z,68.90
2022-10-15T02:01:37.225Z,68.90
2022-10-15T02:04:22.202Z,68.90
2022-10-15T02:06:54.081Z,69.10
2022-10-15T02:09:28.811Z,69.00
2022-10-15T02:12:09.052Z,69.10
2022-10-15T02:14:45.398Z,69.00
2022-10-15T02:17:16.557Z,68.90
2022-10-15T02:19:50.068Z,69.00
2022-10-15T02:22:20.901Z,69.00
2022-10-15T02:24:55.734Z,69.10
2022-10-15T02:27:24.802Z,69.10
2022-10-15T02:29:54.160Z,69.10
2022-10-15T02:32:24.684Z,69.20
2022-10-15T02:34:54.329Z,69.20
2022-10-15T02:37:25.244Z,69.20
2022-10-15T02:39:53.440Z,69.30
2022-10-15T02:42:21.566Z,69.20
2022-10-15T02:44:49.544Z,69.20
2022-10-15T02:47:17.368Z,69.20
2022-10-15T02:49:46.532Z,69.20
2022-10-15T02:52:14.292Z,69.30
2022-10-15T02:54:41.993Z,69.20
2022-10-15T02:57:09.928Z,69.10
2022-10-15T02:59:37.656Z,69.00
2022-10-15T03:02:05.511Z,69.00
2022-10-15T03:04:33.301Z,69.00
2022-10-15T03:07:02.426Z,69.10
2022-10-15T03:09:30.144Z,69.20
2022-10-15T03:11:57.883Z,69.10
2022-10-15T03:14:25.770Z,69.20
2022-10-15T03:16:53.586Z,69.10
2022-10-15T03:19:21.343Z,69.00
2022-10-15T03:21:49.101Z,69.10
2022-10-15T03:24:18.216Z,69.20
2022-10-15T03:26:45.961Z,69.40
2022-10-15T03:29:13.838Z,69.30
2022-10-15T03:31:41.595Z,69.30
2022-10-15T03:34:09.526Z,69.30
2022-10-15T03:36:37.301Z,69.20
2022-10-15T03:39:05.858Z,69.20
2022-10-15T03:41:35.070Z,69.00
2022-10-15T03:44:03.042Z,69.10
2022-10-15T03:46:30.816Z,69.10
2022-10-15T03:48:58.580Z,69.10
2022-10-15T03:51:27.961Z,69.20
2022-10-15T03:53:57.016Z,69.40
2022-10-15T03:56:24.811Z,69.50
2022-10-15T03:58:53.909Z,69.60
2022-10-15T04:01:21.761Z,69.70
2022-10-15T04:03:53.176Z,69.80
2022-10-15T04:06:21.239Z,69.70
2022-10-15T04:08:49.086Z,69.70
2022-10-15T04:11:16.898Z,69.80
2022-10-15T04:13:44.767Z,69.70
2022-10-15T04:16:13.897Z,69.70
2022-10-15T04:18:41.713Z,69.70
2022-10-15T04:21:11.023Z,69.90
2022-10-15T04:23:39.115Z,70.00
2022-10-15T04:26:07.538Z,70.10
2022-10-15T04:28:35.364Z,70.00
2022-10-15T04:31:03.575Z,70.20
2022-10-15T04:33:32.690Z,70.00
2022-10-15T04:36:02.176Z,70.30
2022-10-15T04:38:30.420Z,70.00
2022-10-15T04:41:03.076Z,70.10
2022-10-15T04:43:31.206Z,70.20
2022-10-15T04:45:59.724Z,70.20
2022-10-15T04:48:29.852Z,70.20
2022-10-15T04:51:04.496Z,70.40
2022-10-15T04:53:32.480Z,70.50
2022-10-15T04:56:02.079Z,70.30
2022-10-15T04:58:31.333Z,70.30
2022-10-15T05:01:02.185Z,70.10
2022-10-15T05:03:30.294Z,70.00
2022-10-15T05:06:03.308Z,70.10
2022-10-15T05:08:31.595Z,70.10
2022-10-15T05:11:01.824Z,70.20
2022-10-15T05:13:29.793Z,69.90
2022-10-15T05:15:58.000Z,70.00
2022-10-15T05:18:25.841Z,69.90
2022-10-15T05:20:53.603Z,69.80
2022-10-15T05:23:22.707Z,70.00
2022-10-15T05:25:53.211Z,70.00
2022-10-15T05:28:22.010Z,70.00
2022-10-15T05:30:49.783Z,70.00
2022-10-15T05:33:17.519Z,70.00
2022-10-15T05:35:45.249Z,70.10
2022-10-15T05:38:13.041Z,70.00
2022-10-15T05:40:42.093Z,70.00
2022-10-15T05:43:09.910Z,70.00
2022-10-15T05:45:37.636Z,70.00
2022-10-15T05:48:06.060Z,70.20
2022-10-15T05:50:33.878Z,70.00
2022-10-15T05:53:01.595Z,70.00
2022-10-15T05:55:29.344Z,70.10
2022-10-15T05:58:03.078Z,70.10
2022-10-15T06:00:31.235Z,70.40
2022-10-15T06:02:59.567Z,70.30
2022-10-15T06:05:27.380Z,70.30
2022-10-15T06:07:55.173Z,70.10
2022-10-15T06:10:23.421Z,70.00
2022-10-15T06:12:51.766Z,70.00
2022-10-15T06:15:21.123Z,70.10
2022-10-15T06:17:48.856Z,70.30
2022-10-15T06:20:16.736Z,70.20
2022-10-15T06:22:44.475Z,70.10
2022-10-15T06:25:12.215Z,70.00
2022-10-15T06:27:39.964Z,69.90
2022-10-15T06:30:09.347Z,70.00
2022-10-15T06:32:38.427Z,70.00
2022-10-15T06:35:07.207Z,70.00
2022-10-15T06:37:34.979Z,70.10
2022-10-15T06:40:02.749Z,70.40
2022-10-15T06:42:30.516Z,70.20
2022-10-15T06:44:58.276Z,70.60
2022-10-15T06:47:26.329Z,70.00
2022-10-15T06:49:55.691Z,70.00
2022-10-15T06:52:24.997Z,70.10
2022-10-15T06:54:53.019Z,70.10
2022-10-15T06:57:21.263Z,70.30
2022-10-15T06:59:49.207Z,70.30
2022-10-15T07:02:17.743Z,70.50
2022-10-15T07:04:45.921Z,70.40
2022-10-15T07:07:15.724Z,70.30
2022-10-15T07:09:43.580Z,70.40
2022-10-15T07:12:11.324Z,70.30
2022-10-15T07:14:41.651Z,70.70
2022-10-15T07:17:10.403Z,70.60
2022-10-15T07:19:38.156Z,70.50
2022-10-15T07:22:06.002Z,70.60
2022-10-15T07:24:35.107Z,70.50
2022-10-15T07:27:08.099Z,70.50
2022-10-15T07:29:46.181Z,70.60
2022-10-15T07:32:13.972Z,70.80
2022-10-15T07:34:41.720Z,70.90
2022-10-15T07:37:09.496Z,71.20
2022-10-15T07:39:40.856Z,71.30
2022-10-15T07:42:09.688Z,71.10
2022-10-15T07:44:37.543Z,70.90
2022-10-15T07:47:05.293Z,70.60
2022-10-15T07:49:33.300Z,70.50
2022-10-15T07:52:01.083Z,70.70
2022-10-15T07:54:28.825Z,70.90
2022-10-15T07:56:57.904Z,70.80
2022-10-15T07:59:25.708Z,71.00
2022-10-15T08:01:53.453Z,70.90
2022-10-15T08:04:21.354Z,71.00
2022-10-15T08:06:49.723Z,70.60
2022-10-15T08:09:17.838Z,70.60
2022-10-15T08:11:45.569Z,70.80
2022-10-15T08:14:14.746Z,70.80
2022-10-15T08:16:42.538Z,70.60
2022-10-15T08:19:10.291Z,70.40
2022-10-15T08:21:38.060Z,70.50
2022-10-15T08:24:06.779Z,70.50
2022-10-15T08:26:34.784Z,70.40
2022-10-15T08:29:03.069Z,70.30
2022-10-15T08:31:32.608Z,70.30
2022-10-15T08:34:01.283Z,70.20
2022-10-15T08:36:29.323Z,70.20
2022-10-15T08:38:57.127Z,70.10
2022-10-15T08:41:29.872Z,70.20
2022-10-15T08:43:57.880Z,70.20
2022-10-15T08:46:32.519Z,70.10
2022-10-15T08:49:02.667Z,70.10
2022-10-15T08:51:39.380Z,70.10
2022-10-15T08:54:10.923Z,70.10
2022-10-15T08:56:41.406Z,69.90
2022-10-15T08:59:18.211Z,70.20
2022-10-15T09:01:51.204Z,70.40
2022-10-15T09:04:28.876Z,70.20
2022-10-15T09:07:04.863Z,70.40
2022-10-15T09:09:41.413Z,70.50
2022-10-15T09:12:22.369Z,70.60
2022-10-15T09:14:50.796Z,71.30
2022-10-15T09:17:23.497Z,70.80
2022-10-15T09:19:55.492Z,70.80
2022-10-15T09:22:26.728Z,70.70
2022-10-15T09:24:55.004Z,71.00
2022-10-15T09:27:31.680Z,70.80
2022-10-15T09:30:06.884Z,70.90
2022-10-15T09:32:38.242Z,70.90
2022-10-15T09:35:16.948Z,71.10
2022-10-15T09:37:51.783Z,71.80
2022-10-15T09:40:30.939Z,71.30
2022-10-15T09:43:01.130Z,71.60
2022-10-15T09:45:28.977Z,71.50
2022-10-15T09:48:00.723Z,71.50
2022-10-15T09:50:41.367Z,71.60
2022-10-15T09:53:18.711Z,71.60
2022-10-15T09:55:52.984Z,71.60
2022-10-15T09:58:26.406Z,71.60
2022-10-15T10:00:57.504Z,71.50
2022-10-15T10:03:27.284Z,71.60
2022-10-15T10:06:04.318Z,71.60
2022-10-15T10:08:36.291Z,71.90
2022-10-15T10:11:07.331Z,72.00
2022-10-15T10:13:40.387Z,71.90
2022-10-15T10:16:10.896Z,71.90
2022-10-15T10:18:39.154Z,72.10
2022-10-15T10:21:23.340Z,71.90
2022-10-15T10:23:51.127Z,72.20
2022-10-15T10:26:19.359Z,71.90
2022-10-15T10:28:56.646Z,71.70
2022-10-15T10:31:31.063Z,71.90
2022-10-15T10:34:02.320Z,71.90
2022-10-15T10:36:34.293Z,72.10
2022-10-15T10:39:04.895Z,72.00
2022-10-15T10:41:58.167Z,72.10
2022-10-15T10:44:30.800Z,73.20
2022-10-15T10:47:16.269Z,72.50
2022-10-15T10:49:45.892Z,73.00
2022-10-15T10:52:26.584Z,72.20
2022-10-15T10:55:02.776Z,72.30
2022-10-15T10:57:44.196Z,72.20
2022-10-15T11:00:17.255Z,72.50
2022-10-15T11:02:45.220Z,72.10
2022-10-15T11:05:14.005Z,71.90
2022-10-15T11:07:51.527Z,72.00
2022-10-15T11:10:25.480Z,72.20
2022-10-15T11:13:06.752Z,72.50
2022-10-15T11:15:46.338Z,72.60
2022-10-15T11:18:28.844Z,73.60
2022-10-15T11:21:07.307Z,72.50
2022-10-15T11:23:56.400Z,72.80
2022-10-15T11:27:06.535Z,72.30
2022-10-15T11:29:42.832Z,72.20
2022-10-15T11:32:25.323Z,72.50
2022-10-15T11:35:09.848Z,72.60
2022-10-15T11:37:50.227Z,73.30
2022-10-15T11:40:32.486Z,72.70
2022-10-15T11:43:04.323Z,73.40
2022-10-15T11:45:53.992Z,72.80
2022-10-15T11:48:33.464Z,74.00
2022-10-15T11:51:07.173Z,73.70
2022-10-15T11:54:09.455Z,73.10
2022-10-15T11:56:44.149Z,75.30
2022-10-15T11:59:24.853Z,74.90
2022-10-15T12:01:55.960Z,74.70
2022-10-15T12:04:35.207Z,73.70
2022-10-15T12:07:06.040Z,74.90
2022-10-15T12:09:39.019Z,74.10
2022-10-15T12:12:13.057Z,74.10
2022-10-15T12:14:44.930Z,74.00
2022-10-15T12:17:18.232Z,74.30
2022-10-15T12:19:49.842Z,74.90
2022-10-15T12:22:34.345Z,74.90
2022-10-15T12:25:02.840Z,74.20
2022-10-15T12:27:37.025Z,73.70
2022-10-15T12:30:26.274Z,73.70
2022-10-15T12:32:54.464Z,73.80
2022-10-15T12:35:39.329Z,73.10
2022-10-15T12:38:20.729Z,73.30
2022-10-15T12:40:56.124Z,74.10
2022-10-15T12:43:25.889Z,73.80
2022-10-15T12:45:55.919Z,73.80
2022-10-15T12:48:31.766Z,73.90
2022-10-15T12:51:38.338Z,73.90
2022-10-15T12:54:33.975Z,74.00
2022-10-15T12:57:04.656Z,73.40
2022-10-15T12:59:58.154Z,72.60
2022-10-15T13:02:39.033Z,72.00
2022-10-15T13:05:08.695Z,71.70
2022-10-15T13:07:40.651Z,71.10
2022-10-15T13:10:20.339Z,70.10
2022-10-15T13:12:54.635Z,67.70
2022-10-15T13:15:26.116Z,68.80
2022-10-15T13:17:55.372Z,68.00
2022-10-15T13:20:33.320Z,67.80
2022-10-15T13:23:30.009Z,68.70
2022-10-15T13:26:12.994Z,68.70
2022-10-15T13:28:42.500Z,69.10
2022-10-15T13:31:17.047Z,68.80
2022-10-15T13:33:48.842Z,68.30
2022-10-15T13:36:22.180Z,68.30
2022-10-15T13:38:58.192Z,68.60
2022-10-15T13:41:32.317Z,68.60
2022-10-15T13:44:01.154Z,68.60
2022-10-15T13:46:33.195Z,68.30
2022-10-15T13:49:03.305Z,68.50
2022-10-15T13:51:36.055Z,68.50
2022-10-15T13:54:10.338Z,68.40
2022-10-15T13:56:38.474Z,68.50
2022-10-15T13:59:06.730Z,68.50
2022-10-15T14:01:36.880Z,68.50
2022-10-15T14:04:05.339Z,68.50
2022-10-15T14:06:35.244Z,68.30
2022-10-15T14:09:14.839Z,68.40
2022-10-15T14:11:42.671Z,67.80
2022-10-15T14:14:29.231Z,67.90
2022-10-15T14:16:59.963Z,67.90
2022-10-15T14:19:30.608Z,68.10
2022-10-15T14:21:59.834Z,67.70
2022-10-15T14:24:32.884Z,66.90
2022-10-15T14:27:06.415Z,67.50
2022-10-15T14:29:40.512Z,67.00
2022-10-15T14:32:25.500Z,66.90
2022-10-15T14:34:55.048Z,66.70
2022-10-15T14:37:31.235Z,66.30
2022-10-15T14:40:10.821Z,66.20
2022-10-15T14:42:40.372Z,66.00
2022-10-15T14:45:20.269Z,65.30
2022-10-15T14:47:51.327Z,65.30
2022-10-15T14:50:20.172Z,65.30
2022-10-15T14:52:50.707Z,65.10
2022-10-15T14:55:33.050Z,65.30
2022-10-15T14:58:03.171Z,65.30
2022-10-15T15:00:34.402Z,64.60
2022-10-15T15:03:06.123Z,65.30
2022-10-15T15:05:45.952Z,65.40
2022-10-15T15:08:13.986Z,65.30
2022-10-15T15:10:42.120Z,65.80
2022-10-15T15:13:12.731Z,65.90
2022-10-15T15:15:42.211Z,65.80
2022-10-15T15:18:12.460Z,65.30
2022-10-15T15:20:43.200Z,65.70
2022-10-15T15:23:14.871Z,64.80
2022-10-15T15:25:43.016Z,65.20
2022-10-15T15:28:14.483Z,64.80
2022-10-15T15:30:44.007Z,65.00
2022-10-15T15:33:14.868Z,65.20
2022-10-15T15:35:50.581Z,65.30
2022-10-15T15:38:18.807Z,65.20
2022-10-15T15:40:46.843Z,65.30
2022-10-15T15:43:17.115Z,65.30
2022-10-15T15:45:44.972Z,65.30
2022-10-15T15:48:14.181Z,65.30
2022-10-15T15:50:42.135Z,65.10
2022-10-15T15:53:12.500Z,65.20
2022-10-15T15:55:40.271Z,65.00
2022-10-15T15:58:08.013Z,65.20
2022-10-15T16:00:35.786Z,65.30
2022-10-15T16:03:03.562Z,65.10
2022-10-15T16:05:32.690Z,65.10
2022-10-15T16:08:00.423Z,65.00
2022-10-15T16:10:28.156Z,65.10
2022-10-15T16:12:56.554Z,64.70
2022-10-15T16:15:24.346Z,64.50
2022-10-15T16:17:52.050Z,64.90
2022-10-15T16:20:20.785Z,65.10
2022-10-15T16:22:52.224Z,65.20
2022-10-15T16:25:21.453Z,65.20
2022-10-15T16:27:51.681Z,64.80
2022-10-15T16:30:20.416Z,64.90
2022-10-15T16:32:48.123Z,65.30
2022-10-15T16:35:15.988Z,65.20
2022-10-15T16:37:43.792Z,65.20
2022-10-15T16:40:13.665Z,65.20
2022-10-15T16:42:41.513Z,65.30
2022-10-15T16:45:11.278Z,65.20
2022-10-15T16:47:39.046Z,65.40
2022-10-15T16:50:07.931Z,65.40
2022-10-15T16:52:36.088Z,65.40
2022-10-15T16:55:03.966Z,65.60
2022-10-15T16:57:33.095Z,65.50
2022-10-15T17:00:01.058Z,65.40
2022-10-15T17:02:28.913Z,65.40
2022-10-15T17:04:56.704Z,65.40
2022-10-15T17:07:24.700Z,65.40
2022-10-15T17:09:52.628Z,65.30
2022-10-15T17:12:20.406Z,65.40
2022-10-15T17:14:51.981Z,65.50
2022-10-15T17:17:20.195Z,65.50
2022-10-15T17:19:47.936Z,65.60
2022-10-15T17:22:15.730Z,65.60
2022-10-15T17:24:43.553Z,65.30
2022-10-15T17:27:11.364Z,65.20
2022-10-15T17:29:39.337Z,65.00
2022-10-15T17:32:08.482Z,65.00
2022-10-15T17:34:36.491Z,65.50
2022-10-15T17:37:04.253Z,65.60
2022-10-15T17:39:32.049Z,65.70
2022-10-15T17:41:59.800Z,65.70
2022-10-15T17:44:27.956Z,65.60
2022-10-15T17:46:55.712Z,65.80
2022-10-15T17:49:24.837Z,65.80
2022-10-15T17:51:52.585Z,65.90
2022-10-15T17:54:20.351Z,65.90
2022-10-15T17:56:48.601Z,65.80
2022-10-15T17:59:16.500Z,65.90
2022-10-15T18:01:57.806Z,65.80
2022-10-15T18:04:28.680Z,65.80
2022-10-15T18:06:56.479Z,66.60
2022-10-15T18:09:24.260Z,65.80
2022-10-15T18:11:52.232Z,65.80
2022-10-15T18:16:48.667Z,65.60
2022-10-15T18:19:16.488Z,65.70
2022-10-15T18:21:48.676Z,65.50
2022-10-15T18:24:19.914Z,65.70
2022-10-15T18:26:48.160Z,65.60
2022-10-15T18:29:15.948Z,65.60
2022-10-15T18:31:43.676Z,65.40
2022-10-15T18:34:11.595Z,65.50
2022-10-15T18:36:41.644Z,65.40
2022-10-15T18:39:11.039Z,65.40
2022-10-15T18:41:40.136Z,65.10
2022-10-15T18:44:12.703Z,65.30
2022-10-15T18:46:42.100Z,65.10
2022-10-15T18:49:09.977Z,65.60
2022-10-15T18:51:37.848Z,65.30
2022-10-15T18:54:06.947Z,65.20
2022-10-15T18:56:36.206Z,65.20
2022-10-15T18:59:04.088Z,65.20
2022-10-15T19:01:33.942Z,65.20
2022-10-15T19:04:03.850Z,65.30
2022-10-15T19:06:35.441Z,65.30
2022-10-15T19:09:05.500Z,65.30
2022-10-15T19:11:34.824Z,65.10
2022-10-15T19:14:04.544Z,65.50
2022-10-15T19:16:32.416Z,65.50
2022-10-15T19:19:01.375Z,65.40
2022-10-15T19:21:29.224Z,65.50
2022-10-15T19:23:56.992Z,66.40
2022-10-15T19:26:25.251Z,65.60
2022-10-15T19:28:53.425Z,65.50
2022-10-15T19:31:25.441Z,65.80
2022-10-15T19:33:53.668Z,65.70
2022-10-15T19:36:23.628Z,65.70
2022-10-15T19:38:51.781Z,65.70
2022-10-15T19:41:19.996Z,65.80
2022-10-15T19:43:47.935Z,66.00
2022-10-15T19:46:15.778Z,66.60
2022-10-15T19:48:44.925Z,66.00
2022-10-15T19:51:12.887Z,65.90
2022-10-15T19:53:40.764Z,66.00
2022-10-15T19:56:11.452Z,66.20
2022-10-15T19:58:39.175Z,66.10
2022-10-15T20:01:07.113Z,66.20
2022-10-15T20:06:07.088Z,66.20
2022-10-15T20:08:35.584Z,66.10
2022-10-15T20:11:07.136Z,66.00
2022-10-15T20:13:36.432Z,66.10
2022-10-15T20:16:05.923Z,66.10
2022-10-15T20:18:34.204Z,66.10
2022-10-15T20:21:06.972Z,66.10
2022-10-15T20:23:37.613Z,66.00
2022-10-15T20:26:06.410Z,65.90
2022-10-15T20:28:37.025Z,66.10
2022-10-15T20:31:08.721Z,66.20
2022-10-15T20:33:37.240Z,66.20
2022-10-15T20:36:06.300Z,66.00
2022-10-15T20:38:34.595Z,65.80
2022-10-15T20:41:09.180Z,66.10
2022-10-15T20:43:37.225Z,65.90
2022-10-15T20:46:07.476Z,66.00
2022-10-15T20:48:36.005Z,66.00
2022-10-15T20:51:04.989Z,65.90
2022-10-15T20:53:32.804Z,65.90
2022-10-15T20:56:01.404Z,66.00
2022-10-15T20:58:31.371Z,65.90
2022-10-15T21:00:59.357Z,65.70
2022-10-15T21:03:27.208Z,66.10
2022-10-15T21:05:55.009Z,66.00
2022-10-15T21:08:24.238Z,66.00
2022-10-15T21:10:52.034Z,66.10
2022-10-15T21:13:19.847Z,66.10
2022-10-15T21:15:48.973Z,66.10
2022-10-15T21:18:19.032Z,66.00
2022-10-15T21:20:48.598Z,66.10
2022-10-15T21:23:16.354Z,66.00
2022-10-15T21:25:44.100Z,66.00
2022-10-15T21:28:11.819Z,65.80
2022-10-15T21:30:40.748Z,65.80
2022-10-15T21:33:09.834Z,65.70
2022-10-15T21:35:37.587Z,65.60
2022-10-15T21:38:05.362Z,65.70
2022-10-15T21:40:33.211Z,65.70
2022-10-15T21:43:00.965Z,65.60
2022-10-15T21:45:28.766Z,65.60
2022-10-15T21:47:56.699Z,65.50
2022-10-15T21:50:25.783Z,65.50
2022-10-15T21:52:53.631Z,65.40
2022-10-15T21:55:21.437Z,65.60
2022-10-15T21:57:49.173Z,65.60
2022-10-15T22:00:18.295Z,65.40
2022-10-15T22:02:50.412Z,65.40
2022-10-15T22:05:18.287Z,65.50
2022-10-15T22:07:47.607Z,65.50
2022-10-15T22:10:15.521Z,65.40
2022-10-15T22:12:43.236Z,65.40
2022-10-15T22:15:11.476Z,65.20
2022-10-15T22:17:39.226Z,65.20
2022-10-15T22:20:08.012Z,65.00
2022-10-15T22:22:35.804Z,65.30
2022-10-15T22:25:05.231Z,65.20
2022-10-15T22:27:33.021Z,65.20
2022-10-15T22:30:00.808Z,65.20
2022-10-15T22:32:28.879Z,65.10
2022-10-15T22:34:56.675Z,65.20
2022-10-15T22:37:24.448Z,65.10
2022-10-15T22:39:52.217Z,65.40
2022-10-15T22:42:21.356Z,65.20
2022-10-15T22:44:49.109Z,65.10
2022-10-15T22:47:16.872Z,65.20
2022-10-15T22:49:44.588Z,65.30
2022-10-15T22:52:12.376Z,65.20
2022-10-15T22:54:40.126Z,65.10
2022-10-15T22:57:07.960Z,65.00
2022-10-15T22:59:37.299Z,65.10
2022-10-15T23:02:05.126Z,65.10
2022-10-15T23:04:32.985Z,64.90
2022-10-15T23:07:00.706Z,64.90
2022-10-15T23:09:28.530Z,64.60
2022-10-15T23:11:56.297Z,64.50
2022-10-15T23:14:24.023Z,64.70
2022-10-15T23:16:53.139Z,64.60
2022-10-15T23:19:22.924Z,64.50
2022-10-15T23:21:52.806Z,64.40
2022-10-15T23:24:22.753Z,64.40
2022-10-15T23:26:51.005Z,64.60
2022-10-15T23:29:20.039Z,64.40
2022-10-15T23:31:48.369Z,64.30
2022-10-15T23:34:19.815Z,64.20
2022-10-15T23:36:49.523Z,64.30
2022-10-15T23:39:19.407Z,64.20
2022-10-15T23:41:47.189Z,64.10
2022-10-15T23:44:15.154Z,63.80
2022-10-15T23:46:43.204Z,63.90
2022-10-15T23:49:11.055Z,64.00
2022-10-15T23:51:40.816Z,64.10
2022-10-15T23:54:13.944Z,63.70
2022-10-15T23:56:41.821Z,63.80
2022-10-15T23:59:09.739Z,64.00
